createdAt,value
2023-04-18T00:00:53.707Z,10.70
2023-04-18T00:01:53.704Z,11.90
2023-04-18T00:02:53.727Z,13.00
2023-04-18T00:03:53.833Z,13.00
2023-04-18T00:04:54.056Z,14.40
2023-04-18T00:05:53.550Z,12.60
2023-04-18T00:06:53.594Z,13.20
2023-04-18T00:07:53.529Z,14.80
2023-04-18T00:08:53.573Z,18.00
2023-04-18T00:09:53.470Z,14.60
2023-04-18T00:10:53.498Z,14.90
2023-04-18T00:11:53.493Z,13.30
2023-04-18T00:12:53.459Z,15.40
2023-04-18T00:13:53.457Z,12.90
2023-04-18T00:14:53.439Z,13.40
2023-04-18T00:15:53.411Z,12.70
2023-04-18T00:16:53.483Z,11.40
2023-04-18T00:17:53.489Z,13.30
2023-04-18T00:18:53.406Z,12.20
2023-04-18T00:19:53.348Z,11.40
2023-04-18T00:20:53.376Z,11.80
2023-04-18T00:21:53.696Z,13.10
2023-04-18T00:22:53.359Z,13.80
2023-04-18T00:23:53.329Z,11.70
2023-04-18T00:24:53.322Z,12.70
2023-04-18T00:25:53.293Z,10.40
2023-04-18T00:26:53.375Z,10.30
2023-04-18T00:27:53.280Z,14.00
2023-04-18T00:28:53.285Z,12.90
2023-04-18T00:29:53.254Z,12.90
2023-04-18T00:30:53.289Z,13.40
2023-04-18T00:31:53.281Z,12.50
2023-04-18T00:32:53.313Z,12.80
2023-04-18T00:33:53.226Z,14.50
2023-04-18T00:34:53.204Z,14.10
2023-04-18T00:35:53.174Z,13.30
2023-04-18T00:36:53.225Z,15.10
2023-04-18T00:37:53.174Z,13.70
2023-04-18T00:38:53.264Z,12.40
2023-04-18T00:39:53.122Z,17.60
2023-04-18T00:40:53.139Z,12.10
2023-04-18T00:41:53.167Z,13.50
2023-04-18T00:42:53.132Z,16.70
2023-04-18T00:43:53.119Z,11.70
2023-04-18T00:44:53.106Z,13.80
2023-04-18T00:45:53.137Z,11.90
2023-04-18T00:46:53.112Z,15.10
2023-04-18T00:47:53.130Z,13.10
2023-04-18T00:48:53.101Z,13.30
2023-04-18T00:49:53.038Z,13.30
2023-04-18T00:50:53.049Z,12.20
2023-04-18T00:51:52.991Z,14.00
2023-04-18T00:52:53.039Z,13.80
2023-04-18T00:53:53.035Z,12.30
2023-04-18T00:54:53.020Z,13.70
2023-04-18T00:55:52.948Z,15.00
2023-04-18T00:56:52.968Z,13.30
2023-04-18T00:57:52.947Z,12.10
2023-04-18T00:58:52.948Z,11.40
2023-04-18T00:59:52.938Z,12.90
2023-04-18T01:00:53.018Z,13.50
2023-04-18T01:01:53.102Z,15.00
2023-04-18T01:02:52.990Z,12.60
2023-04-18T01:03:53.048Z,12.50
2023-04-18T01:04:52.901Z,10.60
2023-04-18T01:05:52.879Z,12.50
2023-04-18T01:06:52.915Z,11.80
2023-04-18T01:07:52.828Z,12.50
2023-04-18T01:08:52.843Z,12.10
2023-04-18T01:09:52.800Z,10.90
2023-04-18T01:10:52.866Z,14.70
2023-04-18T01:11:52.825Z,10.80
2023-04-18T01:12:52.876Z,15.20
2023-04-18T01:13:52.759Z,11.70
2023-04-18T01:14:52.786Z,13.10
2023-04-18T01:15:52.834Z,13.30
2023-04-18T01:16:52.770Z,13.20
2023-04-18T01:17:52.797Z,14.30
2023-04-18T01:18:52.755Z,14.40
2023-04-18T01:19:52.694Z,14.80
2023-04-18T01:20:52.724Z,12.80
2023-04-18T01:21:53.359Z,13.40
2023-04-18T01:22:52.699Z,11.80
2023-04-18T01:23:52.651Z,13.20
2023-04-18T01:24:52.660Z,13.60
2023-04-18T01:25:52.665Z,13.30
2023-04-18T01:26:53.376Z,11.30
2023-04-18T01:27:52.671Z,11.60
2023-04-18T01:28:52.612Z,12.60
2023-04-18T01:29:52.629Z,14.10
2023-04-18T01:30:52.649Z,12.30
2023-04-18T01:31:52.558Z,13.50
2023-04-18T01:32:52.659Z,12.50
2023-04-18T01:33:52.563Z,11.50
2023-04-18T01:34:52.575Z,12.50
2023-04-18T01:35:52.527Z,13.10
2023-04-18T01:36:52.539Z,13.90
2023-04-18T01:37:52.503Z,18.10
2023-04-18T01:38:52.535Z,14.60
2023-04-18T01:39:52.488Z,17.70
2023-04-18T01:40:52.490Z,14.30
2023-04-18T01:41:52.500Z,15.90
2023-04-18T01:42:52.892Z,14.20
2023-04-18T01:43:52.893Z,17.20
2023-04-18T01:44:52.476Z,14.30
2023-04-18T01:45:52.416Z,13.70
2023-04-18T01:46:52.461Z,12.40
2023-04-18T01:47:52.479Z,13.60
2023-04-18T01:48:52.414Z,13.90
2023-04-18T01:49:52.417Z,12.30
2023-04-18T01:50:52.397Z,14.10
2023-04-18T01:51:52.391Z,13.60
2023-04-18T01:52:52.387Z,14.70
2023-04-18T01:53:52.306Z,15.40
2023-04-18T01:54:52.358Z,14.40
2023-04-18T01:55:52.333Z,14.40
2023-04-18T01:56:52.697Z,14.50
2023-04-18T01:57:52.366Z,14.40
2023-04-18T01:58:52.288Z,13.40
2023-04-18T01:59:52.288Z,12.70
2023-04-18T02:00:52.323Z,14.20
2023-04-18T02:01:52.321Z,13.40
2023-04-18T02:02:53.280Z,12.70
2023-04-18T02:03:52.362Z,15.20
2023-04-18T02:04:52.232Z,13.40
2023-04-18T02:05:52.207Z,13.10
2023-04-18T02:06:52.220Z,13.70
2023-04-18T02:07:52.199Z,14.40
2023-04-18T02:08:52.200Z,15.00
2023-04-18T02:09:52.164Z,13.70
2023-04-18T02:10:52.155Z,13.20
2023-04-18T02:11:52.168Z,13.20
2023-04-18T02:12:52.139Z,13.70
2023-04-18T02:13:52.117Z,11.10
2023-04-18T02:14:52.098Z,12.70
2023-04-18T02:15:52.074Z,12.70
2023-04-18T02:16:52.177Z,13.30
2023-04-18T02:17:52.199Z,13.20
2023-04-18T02:18:52.066Z,12.60
2023-04-18T02:19:52.018Z,13.00
2023-04-18T02:20:52.076Z,12.90
2023-04-18T02:21:52.026Z,13.80
2023-04-18T02:22:52.019Z,13.10
2023-04-18T02:23:51.988Z,14.00
2023-04-18T02:24:52.047Z,13.20
2023-04-18T02:25:51.973Z,13.60
2023-04-18T02:26:52.011Z,12.70
2023-04-18T02:27:51.987Z,12.40
2023-04-18T02:28:52.000Z,11.30
2023-04-18T02:29:51.973Z,14.40
2023-04-18T02:30:51.970Z,13.30
2023-04-18T02:31:51.924Z,14.00
2023-04-18T02:32:52.066Z,14.40
2023-04-18T02:33:51.884Z,12.90
2023-04-18T02:34:51.896Z,12.30
2023-04-18T02:35:51.891Z,14.00
2023-04-18T02:36:51.956Z,13.60
2023-04-18T02:37:51.831Z,14.00
2023-04-18T02:38:51.856Z,12.20
2023-04-18T02:39:51.844Z,12.80
2023-04-18T02:40:51.860Z,12.20
2023-04-18T02:41:51.796Z,12.20
2023-04-18T02:42:51.803Z,12.50
2023-04-18T02:43:52.092Z,13.80
2023-04-18T02:44:51.848Z,15.60
2023-04-18T02:45:51.745Z,14.50
2023-04-18T02:46:51.813Z,12.30
2023-04-18T02:47:56.044Z,13.20
2023-04-18T02:48:51.763Z,14.20
2023-04-18T02:49:51.708Z,13.00
2023-04-18T02:50:51.781Z,15.10
2023-04-18T02:51:51.678Z,13.90
2023-04-18T02:52:51.696Z,14.20
2023-04-18T02:53:51.691Z,15.10
2023-04-18T02:54:51.681Z,13.00
2023-04-18T02:55:51.647Z,13.30
2023-04-18T02:56:51.672Z,13.30
2023-04-18T02:57:51.652Z,14.80
2023-04-18T02:58:51.644Z,14.60
2023-04-18T02:59:51.584Z,15.80
2023-04-18T03:00:51.733Z,13.90
2023-04-18T03:01:51.563Z,12.90
2023-04-18T03:02:51.659Z,12.50
2023-04-18T03:03:51.915Z,14.30
2023-04-18T03:04:51.606Z,13.60
2023-04-18T03:05:51.531Z,13.70
2023-04-18T03:06:51.566Z,14.20
2023-04-18T03:07:51.509Z,14.70
2023-04-18T03:08:51.530Z,13.60
2023-04-18T03:09:51.488Z,13.60
2023-04-18T03:10:51.520Z,14.20
2023-04-18T03:11:51.487Z,12.60
2023-04-18T03:12:51.483Z,15.60
2023-04-18T03:13:51.437Z,13.70
2023-04-18T03:14:51.458Z,13.00
2023-04-18T03:15:51.505Z,13.40
2023-04-18T03:16:53.874Z,13.90
2023-04-18T03:17:51.470Z,13.90
2023-04-18T03:18:51.457Z,15.60
2023-04-18T03:19:51.391Z,15.10
2023-04-18T03:20:51.390Z,14.30
2023-04-18T03:21:51.396Z,14.80
2023-04-18T03:22:51.372Z,13.70
2023-04-18T03:23:51.457Z,15.40
2023-04-18T03:24:51.349Z,14.90
2023-04-18T03:25:51.348Z,13.00
2023-04-18T03:26:51.349Z,16.30
2023-04-18T03:27:51.278Z,13.80
2023-04-18T03:28:51.312Z,13.10
2023-04-18T03:29:51.269Z,14.20
2023-04-18T03:30:51.306Z,14.50
2023-04-18T03:31:51.257Z,16.80
2023-04-18T03:32:51.278Z,13.80
2023-04-18T03:33:51.263Z,14.40
2023-04-18T03:34:51.260Z,15.90
2023-04-18T03:35:51.208Z,19.00
2023-04-18T03:36:51.230Z,15.70
2023-04-18T03:37:51.233Z,16.20
2023-04-18T03:38:51.199Z,14.10
2023-04-18T03:39:51.191Z,12.30
2023-04-18T03:40:51.256Z,14.60
2023-04-18T03:41:51.151Z,16.20
2023-04-18T03:42:51.168Z,14.50
2023-04-18T03:43:51.116Z,17.20
2023-04-18T03:44:51.161Z,13.90
2023-04-18T03:45:51.155Z,15.20
2023-04-18T03:46:51.161Z,15.10
2023-04-18T03:47:51.088Z,16.20
2023-04-18T03:48:51.135Z,15.10
2023-04-18T03:49:51.048Z,17.10
2023-04-18T03:50:51.055Z,13.50
2023-04-18T03:51:51.068Z,13.10
2023-04-18T03:52:51.037Z,13.80
2023-04-18T03:53:51.006Z,17.90
2023-04-18T03:54:51.030Z,15.70
2023-04-18T03:55:51.003Z,17.90
2023-04-18T03:56:50.978Z,17.80
2023-04-18T03:57:51.032Z,15.80
2023-04-18T03:58:50.952Z,20.30
2023-04-18T03:59:50.959Z,15.70
2023-04-18T04:00:51.542Z,17.90
2023-04-18T04:01:50.992Z,17.10
2023-04-18T04:02:51.027Z,16.40
2023-04-18T04:03:51.044Z,17.80
2023-04-18T04:04:50.967Z,17.20
2023-04-18T04:05:51.009Z,17.10
2023-04-18T04:06:51.457Z,18.40
2023-04-18T04:07:50.899Z,18.40
2023-04-18T04:08:50.877Z,16.90
2023-04-18T04:09:50.874Z,19.60
2023-04-18T04:10:50.830Z,18.60
2023-04-18T04:11:50.939Z,18.20
2023-04-18T04:12:50.891Z,20.10
2023-04-18T04:13:50.852Z,18.40
2023-04-18T04:14:50.815Z,20.90
2023-04-18T04:15:50.784Z,19.80
2023-04-18T04:16:50.852Z,21.30
2023-04-18T04:17:50.799Z,22.50
2023-04-18T04:18:50.757Z,20.00
2023-04-18T04:19:50.788Z,19.70
2023-04-18T04:20:50.785Z,20.00
2023-04-18T04:21:50.799Z,20.50
2023-04-18T04:22:50.749Z,24.20
2023-04-18T04:23:50.706Z,24.50
2023-04-18T04:24:50.711Z,22.00
2023-04-18T04:25:51.138Z,19.30
2023-04-18T04:26:50.638Z,20.50
2023-04-18T04:27:50.728Z,20.90
2023-04-18T04:28:50.640Z,23.60
2023-04-18T04:29:50.631Z,22.10
2023-04-18T04:30:50.607Z,21.70
2023-04-18T04:31:50.643Z,20.90
2023-04-18T04:32:50.658Z,21.90
2023-04-18T04:33:50.626Z,23.80
2023-04-18T04:34:50.557Z,20.40
2023-04-18T04:35:50.567Z,21.80
2023-04-18T04:36:50.522Z,23.00
2023-04-18T04:37:50.688Z,20.70
2023-04-18T04:38:50.498Z,22.90
2023-04-18T04:39:50.715Z,21.60
2023-04-18T04:40:50.575Z,21.90
2023-04-18T04:41:50.505Z,19.30
2023-04-18T04:42:50.503Z,21.20
2023-04-18T04:43:50.502Z,21.10
2023-04-18T04:44:50.534Z,23.70
2023-04-18T04:45:50.591Z,21.30
2023-04-18T04:46:50.444Z,23.40
2023-04-18T04:47:50.454Z,20.20
2023-04-18T04:48:50.402Z,23.20
2023-04-18T04:49:50.432Z,21.40
2023-04-18T04:50:50.409Z,19.90
2023-04-18T04:51:50.395Z,21.30
2023-04-18T04:52:50.358Z,20.40
2023-04-18T04:53:50.443Z,18.70
2023-04-18T04:54:50.315Z,21.50
2023-04-18T04:55:50.323Z,23.00
2023-04-18T04:56:50.303Z,22.30
2023-04-18T04:57:50.324Z,19.00
2023-04-18T04:58:50.285Z,20.30
2023-04-18T04:59:50.297Z,20.20
2023-04-18T05:00:50.486Z,20.90
2023-04-18T05:01:50.413Z,19.70
2023-04-18T05:02:50.452Z,19.20
2023-04-18T05:03:50.329Z,19.00
2023-04-18T05:04:50.338Z,20.50
2023-04-18T05:05:50.229Z,17.60
2023-04-18T05:06:50.229Z,19.10
2023-04-18T05:07:50.254Z,17.70
2023-04-18T05:08:50.173Z,19.30
2023-04-18T05:09:50.210Z,18.80
2023-04-18T05:10:50.162Z,19.90
2023-04-18T05:11:50.178Z,19.40
2023-04-18T05:12:50.188Z,19.00
2023-04-18T05:13:50.150Z,18.00
2023-04-18T05:14:50.149Z,17.80
2023-04-18T05:15:50.199Z,17.20
2023-04-18T05:16:50.125Z,19.50
2023-04-18T05:17:50.450Z,16.10
2023-04-18T05:18:50.200Z,17.50
2023-04-18T05:19:50.198Z,19.40
2023-04-18T05:20:50.512Z,17.20
2023-04-18T05:21:50.024Z,15.80
2023-04-18T05:22:50.124Z,17.50
2023-04-18T05:23:50.093Z,17.60
2023-04-18T05:24:50.225Z,14.80
2023-04-18T05:25:50.235Z,16.90
2023-04-18T05:26:50.366Z,16.30
2023-04-18T05:27:50.366Z,19.00
2023-04-18T05:28:49.971Z,16.00
2023-04-18T05:29:49.984Z,17.80
2023-04-18T05:30:49.919Z,15.50
2023-04-18T05:31:50.103Z,16.10
2023-04-18T05:32:50.015Z,16.20
2023-04-18T05:33:49.963Z,16.00
2023-04-18T05:34:49.863Z,16.70
2023-04-18T05:35:50.375Z,16.40
2023-04-18T05:36:49.856Z,17.40
2023-04-18T05:37:49.920Z,16.80
2023-04-18T05:38:49.887Z,16.90
2023-04-18T05:39:49.838Z,13.50
2023-04-18T05:40:49.831Z,14.50
2023-04-18T05:41:49.828Z,14.80
2023-04-18T05:42:49.840Z,15.00
2023-04-18T05:43:58.150Z,15.20
2023-04-18T05:44:50.797Z,17.20
2023-04-18T05:45:49.822Z,18.80
2023-04-18T05:46:49.750Z,15.80
2023-04-18T05:47:50.905Z,13.80
2023-04-18T05:48:50.281Z,14.50
2023-04-18T05:49:49.719Z,14.10
2023-04-18T05:50:49.705Z,14.10
2023-04-18T05:51:49.797Z,15.40
2023-04-18T05:52:49.718Z,16.80
2023-04-18T05:53:49.729Z,13.60
2023-04-18T05:54:49.688Z,13.20
2023-04-18T05:55:49.667Z,13.20
2023-04-18T05:56:49.683Z,15.20
2023-04-18T05:57:49.787Z,14.70
2023-04-18T05:58:49.605Z,13.50
2023-04-18T05:59:49.771Z,12.50
2023-04-18T06:00:49.756Z,13.70
2023-04-18T06:01:49.793Z,16.40
2023-04-18T06:02:49.828Z,13.00
2023-04-18T06:03:49.979Z,13.80
2023-04-18T06:04:49.814Z,14.90
2023-04-18T06:05:49.668Z,12.60
2023-04-18T06:06:49.554Z,12.20
2023-04-18T06:07:49.616Z,12.30
2023-04-18T06:08:49.649Z,12.50
2023-04-18T06:09:49.631Z,12.80
2023-04-18T06:10:49.493Z,13.20
2023-04-18T06:11:49.505Z,11.60
2023-04-18T06:12:49.502Z,11.70
2023-04-18T06:13:49.542Z,11.80
2023-04-18T06:14:49.450Z,11.50
2023-04-18T06:15:49.466Z,12.30
2023-04-18T06:16:49.442Z,10.80
2023-04-18T06:17:49.508Z,10.30
2023-04-18T06:18:49.435Z,13.80
2023-04-18T06:19:49.444Z,11.50
2023-04-18T06:20:49.392Z,11.80
2023-04-18T06:21:49.375Z,10.10
2023-04-18T06:22:49.363Z,10.70
2023-04-18T06:23:49.393Z,11.70
2023-04-18T06:24:49.339Z,11.30
2023-04-18T06:25:49.785Z,13.00
2023-04-18T06:26:49.333Z,11.60
2023-04-18T06:27:49.367Z,11.30
2023-04-18T06:28:49.572Z,11.90
2023-04-18T06:29:49.639Z,12.70
2023-04-18T06:30:50.243Z,11.10
2023-04-18T06:31:49.354Z,10.70
2023-04-18T06:32:49.321Z,10.10
2023-04-18T06:33:49.252Z,9.20
2023-04-18T06:34:49.248Z,8.90
2023-04-18T06:35:49.218Z,10.20
2023-04-18T06:36:49.233Z,9.40
2023-04-18T06:37:49.253Z,12.10
2023-04-18T06:38:49.165Z,9.40
2023-04-18T06:39:49.192Z,12.10
2023-04-18T06:40:49.151Z,9.40
2023-04-18T06:41:49.308Z,8.70
2023-04-18T06:42:49.115Z,8.40
2023-04-18T06:44:02.066Z,10.00
2023-04-18T06:44:50.120Z,9.10
2023-04-18T06:45:49.141Z,8.10
2023-04-18T06:46:49.058Z,8.50
2023-04-18T06:47:49.159Z,8.40
2023-04-18T06:48:51.057Z,10.40
2023-04-18T06:49:49.387Z,8.30
2023-04-18T06:50:49.137Z,10.00
2023-04-18T06:51:49.063Z,8.80
2023-04-18T06:52:49.021Z,8.50
2023-04-18T06:53:49.030Z,9.50
2023-04-18T06:54:49.005Z,8.80
2023-04-18T06:55:49.018Z,9.30
2023-04-18T06:56:48.980Z,10.00
2023-04-18T06:57:48.986Z,10.10
2023-04-18T06:58:48.972Z,8.00
2023-04-18T06:59:48.936Z,8.40
2023-04-18T07:00:49.009Z,9.20
2023-04-18T07:01:48.964Z,8.40
2023-04-18T07:02:49.106Z,8.50
2023-04-18T07:03:48.994Z,9.20
2023-04-18T07:04:48.898Z,11.40
2023-04-18T07:05:48.882Z,8.50
2023-04-18T07:06:48.878Z,9.00
2023-04-18T07:07:48.866Z,8.70
2023-04-18T07:08:48.810Z,9.80
2023-04-18T07:09:48.964Z,9.10
2023-04-18T07:10:48.892Z,10.60
2023-04-18T07:11:48.837Z,10.40
2023-04-18T07:12:48.818Z,9.80
2023-04-18T07:13:48.780Z,10.70
2023-04-18T07:14:48.749Z,10.00
2023-04-18T07:15:48.776Z,8.70
2023-04-18T07:16:48.821Z,10.00
2023-04-18T07:17:49.038Z,9.70
2023-04-18T07:18:48.709Z,10.00
2023-04-18T07:19:48.737Z,9.40
2023-04-18T07:20:48.686Z,11.20
2023-04-18T07:21:48.728Z,9.10
2023-04-18T07:22:48.660Z,9.10
2023-04-18T07:23:48.748Z,9.20
2023-04-18T07:24:48.670Z,8.50
2023-04-18T07:25:48.657Z,9.40
2023-04-18T07:26:48.619Z,10.00
2023-04-18T07:27:48.626Z,10.00
2023-04-18T07:28:48.652Z,9.00
2023-04-18T07:29:48.840Z,10.90
2023-04-18T07:30:48.646Z,11.10
2023-04-18T07:31:48.591Z,8.70
2023-04-18T07:32:48.567Z,10.90
2023-04-18T07:33:48.564Z,9.80
2023-04-18T07:34:48.585Z,9.30
2023-04-18T07:35:48.572Z,10.00
2023-04-18T07:36:48.568Z,10.10
2023-04-18T07:37:48.516Z,9.30
2023-04-18T07:38:48.507Z,9.60
2023-04-18T07:39:48.516Z,9.70
2023-04-18T07:40:48.496Z,9.50
2023-04-18T07:41:48.494Z,10.00
2023-04-18T07:42:48.549Z,9.30
2023-04-18T07:43:48.454Z,8.90
2023-04-18T07:44:48.439Z,9.20
2023-04-18T07:45:48.669Z,9.60
2023-04-18T07:46:48.454Z,11.50
2023-04-18T07:47:48.485Z,9.80
2023-04-18T07:48:48.475Z,10.30
2023-04-18T07:49:48.382Z,10.10
2023-04-18T07:50:48.480Z,9.60
2023-04-18T07:51:48.406Z,10.80
2023-04-18T07:52:48.341Z,10.70
2023-04-18T07:53:48.406Z,8.90
2023-04-18T07:54:48.362Z,8.90
2023-04-18T07:55:48.358Z,10.20
2023-04-18T07:56:48.346Z,9.20
2023-04-18T07:57:48.332Z,10.60
2023-04-18T07:58:48.272Z,12.10
2023-04-18T07:59:48.335Z,10.70
2023-04-18T08:00:48.356Z,9.10
2023-04-18T08:01:48.351Z,13.50
2023-04-18T08:02:48.391Z,9.00
2023-04-18T08:03:48.350Z,9.80
2023-04-18T08:04:48.391Z,11.50
2023-04-18T08:05:48.254Z,11.20
2023-04-18T08:06:48.229Z,11.80
2023-04-18T08:07:48.226Z,8.80
2023-04-18T08:08:48.173Z,10.40
2023-04-18T08:09:48.438Z,9.20
2023-04-18T08:10:48.407Z,9.70
2023-04-18T08:11:48.225Z,9.30
2023-04-18T08:12:48.190Z,10.80
2023-04-18T08:13:48.123Z,11.90
2023-04-18T08:14:48.210Z,10.10
2023-04-18T08:15:48.140Z,9.10
2023-04-18T08:16:48.212Z,8.70
2023-04-18T08:17:48.131Z,8.60
2023-04-18T08:18:48.088Z,9.80
2023-04-18T08:19:48.104Z,9.20
2023-04-18T08:20:48.073Z,8.50
2023-04-18T08:21:48.019Z,9.40
2023-04-18T08:23:04.787Z,9.00
2023-04-18T08:23:49.017Z,10.40
2023-04-18T08:25:03.325Z,11.90
2023-04-18T08:25:48.997Z,10.00
2023-04-18T08:26:48.027Z,10.30
2023-04-18T08:27:48.026Z,8.90
2023-04-18T08:28:47.957Z,8.40
2023-04-18T08:29:47.968Z,9.10
2023-04-18T08:30:47.987Z,8.60
2023-04-18T08:31:47.976Z,10.20
2023-04-18T08:32:47.993Z,8.30
2023-04-18T08:33:47.912Z,8.60
2023-04-18T08:34:47.902Z,10.40
2023-04-18T08:35:47.866Z,9.00
2023-04-18T08:36:47.875Z,8.20
2023-04-18T08:37:47.935Z,8.30
2023-04-18T08:38:47.859Z,9.60
2023-04-18T08:39:47.835Z,8.50
2023-04-18T08:40:47.845Z,8.60
2023-04-18T08:41:47.809Z,9.40
2023-04-18T08:42:47.809Z,8.10
2023-04-18T08:43:47.761Z,8.30
2023-04-18T08:44:47.799Z,8.10
2023-04-18T08:45:47.757Z,7.80
2023-04-18T08:46:47.762Z,8.10
2023-04-18T08:47:47.798Z,8.70
2023-04-18T08:48:47.742Z,8.70
2023-04-18T08:49:47.691Z,8.30
2023-04-18T08:50:47.923Z,7.50
2023-04-18T08:51:47.705Z,8.60
2023-04-18T08:52:47.693Z,10.30
2023-04-18T08:53:47.648Z,7.40
2023-04-18T08:54:47.680Z,9.00
2023-04-18T08:55:47.701Z,7.60
2023-04-18T08:56:47.676Z,8.00
2023-04-18T08:57:47.629Z,8.80
2023-04-18T08:58:47.856Z,7.80
2023-04-18T08:59:49.013Z,7.80
2023-04-18T09:00:47.618Z,8.00
2023-04-18T09:01:47.595Z,9.30
2023-04-18T09:02:47.738Z,7.40
2023-04-18T09:03:47.590Z,8.60
2023-04-18T09:04:47.559Z,7.90
2023-04-18T09:05:47.532Z,8.70
2023-04-18T09:07:40.847Z,7.40
2023-04-18T09:08:40.888Z,7.60
2023-04-18T09:09:40.775Z,7.80
2023-04-18T09:10:40.786Z,8.10
2023-04-18T09:11:40.749Z,7.20
2023-04-18T09:12:40.786Z,8.10
2023-04-18T09:13:40.742Z,8.00
2023-04-18T09:14:40.746Z,6.80
2023-04-18T09:15:40.718Z,8.00
2023-04-18T09:16:40.788Z,8.60
2023-04-18T09:17:40.747Z,8.10
2023-04-18T09:18:40.745Z,8.90
2023-04-18T09:19:40.696Z,8.00
2023-04-18T09:20:40.722Z,7.10
2023-04-18T09:21:40.673Z,8.40
2023-04-18T09:22:40.695Z,7.40
2023-04-18T09:23:40.644Z,7.60
2023-04-18T09:24:40.647Z,8.70
2023-04-18T09:25:43.295Z,10.30
2023-04-18T09:26:40.673Z,8.90
2023-04-18T09:27:40.665Z,7.70
2023-04-18T09:28:40.606Z,9.00
2023-04-18T09:29:40.615Z,7.10
2023-04-18T09:30:40.757Z,7.10
2023-04-18T09:31:40.603Z,9.30
2023-04-18T09:32:40.603Z,8.20
2023-04-18T09:33:40.512Z,7.70
2023-04-18T09:34:40.531Z,9.10
2023-04-18T09:35:40.552Z,7.80
2023-04-18T09:36:40.537Z,10.30
2023-04-18T09:37:40.463Z,7.00
2023-04-18T09:38:40.528Z,8.50
2023-04-18T09:39:40.437Z,8.10
2023-04-18T09:40:40.460Z,8.10
2023-04-18T09:41:40.435Z,7.50
2023-04-18T09:42:40.435Z,6.70
2023-04-18T09:43:40.423Z,7.80
2023-04-18T09:44:40.426Z,7.50
2023-04-18T09:45:40.386Z,7.70
2023-04-18T09:46:40.507Z,8.20
2023-04-18T09:47:40.407Z,7.20
2023-04-18T09:48:40.372Z,6.40
2023-04-18T09:49:41.258Z,6.70
2023-04-18T09:50:40.537Z,7.90
2023-04-18T09:51:40.364Z,8.60
2023-04-18T09:52:40.340Z,8.50
2023-04-18T09:53:40.294Z,6.50
2023-04-18T09:54:41.312Z,6.90
2023-04-18T09:55:40.271Z,7.10
2023-04-18T09:56:40.280Z,8.50
2023-04-18T09:57:40.244Z,8.80
2023-04-18T09:58:40.310Z,7.00
2023-04-18T09:59:40.231Z,7.30
2023-04-18T10:00:40.231Z,6.90
2023-04-18T10:01:40.259Z,6.80
2023-04-18T10:02:40.284Z,7.40
2023-04-18T10:03:40.243Z,6.70
2023-04-18T10:04:40.243Z,6.70
2023-04-18T10:05:40.205Z,8.50
2023-04-18T10:06:40.165Z,6.20
2023-04-18T10:07:40.149Z,7.10
2023-04-18T10:08:40.171Z,8.10
2023-04-18T10:09:40.120Z,7.30
2023-04-18T10:10:40.157Z,6.90
2023-04-18T10:11:40.138Z,6.80
2023-04-18T10:12:40.097Z,7.70
2023-04-18T10:13:40.091Z,6.70
2023-04-18T10:14:40.095Z,7.60
2023-04-18T10:15:41.745Z,7.70
2023-04-18T10:16:40.155Z,8.10
2023-04-18T10:17:46.719Z,7.70
2023-04-18T10:18:41.037Z,7.20
2023-04-18T10:19:40.075Z,7.20
2023-04-18T10:20:39.998Z,7.30
2023-04-18T10:21:40.015Z,7.10
2023-04-18T10:22:39.991Z,7.90
2023-04-18T10:23:40.015Z,7.00
2023-04-18T10:24:39.955Z,8.40
2023-04-18T10:25:39.981Z,8.00
2023-04-18T10:26:39.923Z,8.10
2023-04-18T10:27:39.958Z,8.00
2023-04-18T10:28:39.908Z,6.30
2023-04-18T10:29:39.966Z,7.10
2023-04-18T10:30:39.898Z,6.60
2023-04-18T10:31:39.936Z,6.50
2023-04-18T10:32:39.945Z,8.60
2023-04-18T10:33:42.410Z,7.50
2023-04-18T10:34:39.842Z,6.50
2023-04-18T10:35:41.297Z,7.10
2023-04-18T10:36:39.830Z,6.10
2023-04-18T10:37:39.845Z,7.00
2023-04-18T10:38:40.122Z,7.20
2023-04-18T10:39:39.820Z,7.40
2023-04-18T10:40:39.805Z,6.30
2023-04-18T10:41:39.795Z,6.60
2023-04-18T10:42:39.767Z,6.20
2023-04-18T10:43:39.766Z,7.80
2023-04-18T10:44:39.759Z,7.70
2023-04-18T10:45:39.751Z,8.50
2023-04-18T10:46:39.775Z,7.20
2023-04-18T10:47:39.949Z,7.40
2023-04-18T10:48:39.699Z,7.40
2023-04-18T10:49:39.698Z,7.70
2023-04-18T10:50:39.674Z,7.70
2023-04-18T10:51:39.720Z,7.70
2023-04-18T10:52:39.674Z,7.50
2023-04-18T10:53:39.693Z,6.60
2023-04-18T10:54:39.628Z,7.30
2023-04-18T10:55:39.643Z,7.10
2023-04-18T10:56:39.590Z,7.30
2023-04-18T10:57:39.643Z,6.20
2023-04-18T10:58:39.606Z,7.40
2023-04-18T10:59:39.643Z,6.60
2023-04-18T11:00:39.656Z,7.80
2023-04-18T11:01:39.610Z,6.80
2023-04-18T11:02:39.722Z,7.80
2023-04-18T11:03:39.624Z,9.10
2023-04-18T11:04:39.506Z,6.90
2023-04-18T11:05:39.542Z,6.80
2023-04-18T11:06:39.494Z,6.70
2023-04-18T11:07:39.520Z,7.70
2023-04-18T11:08:39.488Z,7.40
2023-04-18T11:09:39.502Z,9.10
2023-04-18T11:10:39.439Z,8.00
2023-04-18T11:11:40.303Z,7.80
2023-04-18T11:12:39.468Z,6.20
2023-04-18T11:13:39.464Z,7.20
2023-04-18T11:14:39.411Z,9.00
2023-04-18T11:15:39.412Z,6.60
2023-04-18T11:16:39.403Z,7.60
2023-04-18T11:17:39.457Z,8.20
2023-04-18T11:18:39.344Z,8.80
2023-04-18T11:19:39.370Z,7.60
2023-04-18T11:20:39.339Z,7.20
2023-04-18T11:21:39.339Z,8.70
2023-04-18T11:22:39.305Z,8.60
2023-04-18T11:23:39.335Z,9.20
2023-04-18T11:24:39.283Z,10.00
2023-04-18T11:25:39.335Z,10.50
2023-04-18T11:26:39.268Z,8.60
2023-04-18T11:27:39.258Z,9.00
2023-04-18T11:28:39.236Z,8.60
2023-04-18T11:29:39.274Z,9.10
2023-04-18T11:30:39.219Z,10.00
2023-04-18T11:31:39.315Z,8.40
2023-04-18T11:32:39.822Z,9.60
2023-04-18T11:33:39.870Z,7.90
2023-04-18T11:34:39.182Z,8.60
2023-04-18T11:35:39.245Z,9.60
2023-04-18T11:36:39.205Z,8.40
2023-04-18T11:37:39.183Z,8.40
2023-04-18T11:38:39.144Z,8.90
2023-04-18T11:39:39.149Z,9.50
2023-04-18T11:40:39.103Z,8.90
2023-04-18T11:41:39.160Z,9.90
2023-04-18T11:42:39.087Z,7.70
2023-04-18T11:43:39.715Z,8.40
2023-04-18T11:44:39.059Z,8.80
2023-04-18T11:45:39.116Z,8.70
2023-04-18T11:46:39.093Z,8.20
2023-04-18T11:47:39.180Z,8.60
2023-04-18T11:48:39.011Z,8.40
2023-04-18T11:49:39.034Z,8.40
2023-04-18T11:50:38.983Z,9.50
2023-04-18T11:51:39.066Z,8.10
2023-04-18T11:52:39.849Z,10.00
2023-04-18T11:53:38.993Z,11.60
2023-04-18T11:54:38.942Z,9.60
2023-04-18T11:55:38.947Z,9.00
2023-04-18T11:56:38.909Z,9.20
2023-04-18T11:57:38.928Z,8.00
2023-04-18T11:58:38.897Z,10.30
2023-04-18T11:59:38.899Z,9.50
2023-04-18T12:00:38.892Z,8.50
2023-04-18T12:01:38.908Z,8.60
2023-04-18T12:02:39.195Z,8.80
2023-04-18T12:03:39.011Z,8.30
2023-04-18T12:04:39.282Z,9.40
2023-04-18T12:05:39.079Z,8.60
2023-04-18T12:06:38.823Z,10.60
2023-04-18T12:07:38.846Z,9.50
2023-04-18T12:08:38.788Z,9.10
2023-04-18T12:09:38.799Z,10.90
2023-04-18T12:10:38.944Z,11.00
2023-04-18T12:11:38.825Z,9.30
2023-04-18T12:12:38.774Z,10.40
2023-04-18T12:13:38.776Z,9.50
2023-04-18T12:14:38.756Z,9.60
2023-04-18T12:15:38.917Z,9.80
2023-04-18T12:16:38.688Z,10.10
2023-04-18T12:17:38.741Z,9.40
2023-04-18T12:18:39.057Z,8.50
2023-04-18T12:19:38.710Z,8.90
2023-04-18T12:20:38.673Z,10.60
2023-04-18T12:21:38.650Z,11.30
2023-04-18T12:22:38.630Z,10.00
2023-04-18T12:23:38.639Z,10.10
2023-04-18T12:24:38.621Z,9.60
2023-04-18T12:25:38.644Z,9.80
2023-04-18T12:26:38.573Z,10.50
2023-04-18T12:27:38.584Z,10.30
2023-04-18T12:28:38.550Z,10.60
2023-04-18T12:29:38.559Z,9.90
2023-04-18T12:30:38.554Z,8.70
2023-04-18T12:31:38.585Z,10.80
2023-04-18T12:32:38.559Z,8.90
2023-04-18T12:33:38.555Z,10.40
2023-04-18T12:34:38.584Z,10.50
2023-04-18T12:35:38.528Z,10.00
2023-04-18T12:36:38.468Z,9.70
2023-04-18T12:37:38.524Z,11.20
2023-04-18T12:38:38.441Z,11.80
2023-04-18T12:39:38.462Z,10.80
2023-04-18T12:40:38.413Z,10.90
2023-04-18T12:41:38.436Z,12.90
2023-04-18T12:42:38.404Z,10.70
2023-04-18T12:43:38.398Z,11.60
2023-04-18T12:44:38.371Z,10.30
2023-04-18T12:45:38.409Z,11.00
2023-04-18T12:46:38.421Z,11.10
2023-04-18T12:47:38.424Z,11.30
2023-04-18T12:48:38.323Z,10.20
2023-04-18T12:49:38.348Z,10.60
2023-04-18T12:50:38.342Z,9.70
2023-04-18T12:51:38.320Z,10.10
2023-04-18T12:52:38.302Z,11.70
2023-04-18T12:53:38.293Z,10.40
2023-04-18T12:54:38.320Z,10.50
2023-04-18T12:55:38.303Z,9.30
2023-04-18T12:56:38.232Z,9.20
2023-04-18T12:57:38.253Z,10.30
2023-04-18T12:58:38.210Z,9.30
2023-04-18T12:59:38.249Z,10.90
2023-04-18T13:00:38.232Z,9.60
2023-04-18T13:01:38.277Z,9.50
2023-04-18T13:02:38.317Z,10.20
2023-04-18T13:03:38.324Z,10.10